<?xml version="1.0" encoding="UTF-8" standalone="no" ?>
<gpx xmlns="http://www.topografix.com/GPX/1/1" xmlns:xsi="http://www.w3.org/2001/XMLSchema-instance" xsi:schemaLocation="http://www.topografix.com/GPX/1/1 http://www.topografix.com/GPX/1/1/gpx.xsd" version="1.1" creator="VisuGPX - https://www.visugpx.com">
  <metadata>
    <name>La crête sud d'Angèle</name>
    <desc><![CDATA[voici une boucle qui vous permettra de randonner sur la montagne d'Angèle sans soucis d'autorisation, elle emprunte une partie du GR de pays : tour des baronnies provençales (marque rouge et jaune) .Une bonne montée depuis le village de Villeperdrix avec un petit passage délicat sur un bloc qui, une fois franchi, vous permettra de faire une pause sur sa plate-forme. Vous assisterez alors, si les conditions le permettent, à un meeting aérien de vautours fauves et moines.
Bonne randonnée.]]></desc>
  </metadata>
  <wpt lat="44.45201" lon="5.3063">
    <ele>1090</ele>
    <name><![CDATA[BLOC]]></name>
  </wpt>
  <wpt lat="44.46495" lon="5.28814">
    <ele>1233</ele>
    <name><![CDATA[Quitter la crête descente]]></name>
  </wpt>
  <trk>
    <name><![CDATA[20171124210116-Jy4gu]]></name>
    <trkseg>
      <trkpt lat="44.45529" lon="5.26345">
        <ele>768</ele>
        <time>2017-11-22T09:48:29Z</time>
      </trkpt>
      <trkpt lat="44.45529" lon="5.26345">
        <ele>768</ele>
        <time>2017-11-22T09:48:30Z</time>
      </trkpt>
      <trkpt lat="44.45529" lon="5.26345">
        <ele>768</ele>
        <time>2017-11-22T09:48:36Z</time>
      </trkpt>
      <trkpt lat="44.45529" lon="5.26348">
        <ele>768</ele>
        <time>2017-11-22T09:52:39Z</time>
      </trkpt>
      <trkpt lat="44.45532" lon="5.26345">
        <ele>769</ele>
        <time>2017-11-22T09:52:57Z</time>
      </trkpt>
      <trkpt lat="44.45545" lon="5.26283">
        <ele>769</ele>
        <time>2017-11-22T09:53:33Z</time>
      </trkpt>
      <trkpt lat="44.45548" lon="5.26233">
        <ele>768</ele>
        <time>2017-11-22T09:54:00Z</time>
      </trkpt>
      <trkpt lat="44.45535" lon="5.262">
        <ele>766</ele>
        <time>2017-11-22T09:54:20Z</time>
      </trkpt>
      <trkpt lat="44.45527" lon="5.26167">
        <ele>763</ele>
        <time>2017-11-22T09:54:39Z</time>
      </trkpt>
      <trkpt lat="44.45511" lon="5.26098">
        <ele>761</ele>
        <time>2017-11-22T09:55:18Z</time>
      </trkpt>
      <trkpt lat="44.45492" lon="5.26077">
        <ele>756</ele>
        <time>2017-11-22T09:55:36Z</time>
      </trkpt>
      <trkpt lat="44.4544" lon="5.26087">
        <ele>755</ele>
        <time>2017-11-22T09:56:57Z</time>
      </trkpt>
      <trkpt lat="44.4544" lon="5.26087">
        <ele>755</ele>
        <time>2017-11-22T09:57:15Z</time>
      </trkpt>
      <trkpt lat="44.45418" lon="5.26125">
        <ele>752</ele>
        <time>2017-11-22T09:57:47Z</time>
      </trkpt>
      <trkpt lat="44.45403" lon="5.26158">
        <ele>752</ele>
        <time>2017-11-22T09:58:11Z</time>
      </trkpt>
      <trkpt lat="44.45401" lon="5.26162">
        <ele>752</ele>
        <time>2017-11-22T09:58:15Z</time>
      </trkpt>
      <trkpt lat="44.45398" lon="5.26163">
        <ele>752</ele>
        <time>2017-11-22T09:58:18Z</time>
      </trkpt>
      <trkpt lat="44.45393" lon="5.26164">
        <ele>753</ele>
        <time>2017-11-22T09:58:22Z</time>
      </trkpt>
      <trkpt lat="44.45361" lon="5.26211">
        <ele>741</ele>
        <time>2017-11-22T09:59:03Z</time>
      </trkpt>
      <trkpt lat="44.4536" lon="5.26213">
        <ele>740</ele>
        <time>2017-11-22T09:59:05Z</time>
      </trkpt>
      <trkpt lat="44.45346" lon="5.26232">
        <ele>737</ele>
        <time>2017-11-22T09:59:22Z</time>
      </trkpt>
      <trkpt lat="44.45339" lon="5.26248">
        <ele>732</ele>
        <time>2017-11-22T09:59:36Z</time>
      </trkpt>
      <trkpt lat="44.45337" lon="5.2625">
        <ele>732</ele>
        <time>2017-11-22T09:59:38Z</time>
      </trkpt>
      <trkpt lat="44.45325" lon="5.26261">
        <ele>728</ele>
        <time>2017-11-22T09:59:52Z</time>
      </trkpt>
      <trkpt lat="44.45295" lon="5.26284">
        <ele>726</ele>
        <time>2017-11-22T10:00:22Z</time>
      </trkpt>
      <trkpt lat="44.45268" lon="5.26295">
        <ele>726</ele>
        <time>2017-11-22T10:00:45Z</time>
      </trkpt>
      <trkpt lat="44.45258" lon="5.26316">
        <ele>722</ele>
        <time>2017-11-22T10:01:00Z</time>
      </trkpt>
      <trkpt lat="44.45256" lon="5.26319">
        <ele>721</ele>
        <time>2017-11-22T10:01:03Z</time>
      </trkpt>
      <trkpt lat="44.45228" lon="5.26326">
        <ele>733</ele>
        <time>2017-11-22T10:01:30Z</time>
      </trkpt>
      <trkpt lat="44.45216" lon="5.26342">
        <ele>715</ele>
        <time>2017-11-22T10:01:44Z</time>
      </trkpt>
      <trkpt lat="44.45194" lon="5.26365">
        <ele>714</ele>
        <time>2017-11-22T10:02:16Z</time>
      </trkpt>
      <trkpt lat="44.45188" lon="5.26381">
        <ele>710</ele>
        <time>2017-11-22T10:02:29Z</time>
      </trkpt>
      <trkpt lat="44.45181" lon="5.26398">
        <ele>707</ele>
        <time>2017-11-22T10:02:46Z</time>
      </trkpt>
      <trkpt lat="44.45176" lon="5.26405">
        <ele>704</ele>
        <time>2017-11-22T10:02:58Z</time>
      </trkpt>
      <trkpt lat="44.45138" lon="5.2642">
        <ele>702</ele>
        <time>2017-11-22T10:03:46Z</time>
      </trkpt>
      <trkpt lat="44.45109" lon="5.26434">
        <ele>707</ele>
        <time>2017-11-22T10:04:27Z</time>
      </trkpt>
      <trkpt lat="44.45119" lon="5.26506">
        <ele>687</ele>
        <time>2017-11-22T10:05:27Z</time>
      </trkpt>
      <trkpt lat="44.45112" lon="5.26532">
        <ele>686</ele>
        <time>2017-11-22T10:05:52Z</time>
      </trkpt>
      <trkpt lat="44.45104" lon="5.26564">
        <ele>684</ele>
        <time>2017-11-22T10:06:16Z</time>
      </trkpt>
      <trkpt lat="44.45105" lon="5.26585">
        <ele>675</ele>
        <time>2017-11-22T10:06:41Z</time>
      </trkpt>
      <trkpt lat="44.451" lon="5.26607">
        <ele>673</ele>
        <time>2017-11-22T10:06:58Z</time>
      </trkpt>
      <trkpt lat="44.45091" lon="5.2663">
        <ele>669</ele>
        <time>2017-11-22T10:07:19Z</time>
      </trkpt>
      <trkpt lat="44.45088" lon="5.2664">
        <ele>668</ele>
        <time>2017-11-22T10:07:26Z</time>
      </trkpt>
      <trkpt lat="44.45084" lon="5.26643">
        <ele>667</ele>
        <time>2017-11-22T10:07:29Z</time>
      </trkpt>
      <trkpt lat="44.45063" lon="5.26748">
        <ele>665</ele>
        <time>2017-11-22T10:08:30Z</time>
      </trkpt>
      <trkpt lat="44.45046" lon="5.26813">
        <ele>655</ele>
        <time>2017-11-22T10:09:17Z</time>
      </trkpt>
      <trkpt lat="44.45006" lon="5.26854">
        <ele>650</ele>
        <time>2017-11-22T10:09:58Z</time>
      </trkpt>
      <trkpt lat="44.45001" lon="5.26891">
        <ele>646</ele>
        <time>2017-11-22T10:10:28Z</time>
      </trkpt>
      <trkpt lat="44.45014" lon="5.26937">
        <ele>639</ele>
        <time>2017-11-22T10:10:58Z</time>
      </trkpt>
      <trkpt lat="44.45022" lon="5.26999">
        <ele>635</ele>
        <time>2017-11-22T10:11:31Z</time>
      </trkpt>
      <trkpt lat="44.45023" lon="5.27029">
        <ele>628</ele>
        <time>2017-11-22T10:11:47Z</time>
      </trkpt>
      <trkpt lat="44.4502" lon="5.27092">
        <ele>623</ele>
        <time>2017-11-22T10:12:21Z</time>
      </trkpt>
      <trkpt lat="44.45009" lon="5.27181">
        <ele>613</ele>
        <time>2017-11-22T10:13:10Z</time>
      </trkpt>
      <trkpt lat="44.45008" lon="5.27193">
        <ele>611</ele>
        <time>2017-11-22T10:13:18Z</time>
      </trkpt>
      <trkpt lat="44.44997" lon="5.27221">
        <ele>622</ele>
        <time>2017-11-22T10:13:35Z</time>
      </trkpt>
      <trkpt lat="44.44977" lon="5.27267">
        <ele>612</ele>
        <time>2017-11-22T10:14:04Z</time>
      </trkpt>
      <trkpt lat="44.44968" lon="5.27297">
        <ele>610</ele>
        <time>2017-11-22T10:14:20Z</time>
      </trkpt>
      <trkpt lat="44.4496" lon="5.2732">
        <ele>609</ele>
        <time>2017-11-22T10:14:36Z</time>
      </trkpt>
      <trkpt lat="44.44958" lon="5.2732">
        <ele>609</ele>
        <time>2017-11-22T10:14:38Z</time>
      </trkpt>
      <trkpt lat="44.44926" lon="5.27356">
        <ele>600</ele>
        <time>2017-11-22T10:15:10Z</time>
      </trkpt>
      <trkpt lat="44.44895" lon="5.27368">
        <ele>606</ele>
        <time>2017-11-22T10:15:36Z</time>
      </trkpt>
      <trkpt lat="44.44891" lon="5.27368">
        <ele>607</ele>
        <time>2017-11-22T10:15:40Z</time>
      </trkpt>
      <trkpt lat="44.44889" lon="5.27425">
        <ele>591</ele>
        <time>2017-11-22T10:16:17Z</time>
      </trkpt>
      <trkpt lat="44.4488" lon="5.27451">
        <ele>590</ele>
        <time>2017-11-22T10:16:34Z</time>
      </trkpt>
      <trkpt lat="44.44862" lon="5.27503">
        <ele>579</ele>
        <time>2017-11-22T10:17:09Z</time>
      </trkpt>
      <trkpt lat="44.4485" lon="5.27535">
        <ele>577</ele>
        <time>2017-11-22T10:17:34Z</time>
      </trkpt>
      <trkpt lat="44.44839" lon="5.27581">
        <ele>571</ele>
        <time>2017-11-22T10:18:13Z</time>
      </trkpt>
      <trkpt lat="44.44831" lon="5.27612">
        <ele>566</ele>
        <time>2017-11-22T10:18:36Z</time>
      </trkpt>
      <trkpt lat="44.44821" lon="5.27646">
        <ele>562</ele>
        <time>2017-11-22T10:18:59Z</time>
      </trkpt>
      <trkpt lat="44.4479" lon="5.27679">
        <ele>553</ele>
        <time>2017-11-22T10:19:43Z</time>
      </trkpt>
      <trkpt lat="44.44789" lon="5.27679">
        <ele>553</ele>
        <time>2017-11-22T10:20:09Z</time>
      </trkpt>
      <trkpt lat="44.44768" lon="5.27704">
        <ele>551</ele>
        <time>2017-11-22T10:23:52Z</time>
      </trkpt>
      <trkpt lat="44.44758" lon="5.27718">
        <ele>549</ele>
        <time>2017-11-22T10:24:24Z</time>
      </trkpt>
      <trkpt lat="44.44754" lon="5.27751">
        <ele>540</ele>
        <time>2017-11-22T10:24:47Z</time>
      </trkpt>
      <trkpt lat="44.44748" lon="5.2777">
        <ele>538</ele>
        <time>2017-11-22T10:25:02Z</time>
      </trkpt>
      <trkpt lat="44.44744" lon="5.27789">
        <ele>535</ele>
        <time>2017-11-22T10:25:16Z</time>
      </trkpt>
      <trkpt lat="44.44734" lon="5.27818">
        <ele>532</ele>
        <time>2017-11-22T10:25:37Z</time>
      </trkpt>
      <trkpt lat="44.44732" lon="5.27823">
        <ele>531</ele>
        <time>2017-11-22T10:25:40Z</time>
      </trkpt>
      <trkpt lat="44.44718" lon="5.27852">
        <ele>522</ele>
        <time>2017-11-22T10:26:02Z</time>
      </trkpt>
      <trkpt lat="44.44697" lon="5.27884">
        <ele>519</ele>
        <time>2017-11-22T10:26:31Z</time>
      </trkpt>
      <trkpt lat="44.44683" lon="5.27913">
        <ele>517</ele>
        <time>2017-11-22T10:26:58Z</time>
      </trkpt>
      <trkpt lat="44.44676" lon="5.27928">
        <ele>509</ele>
        <time>2017-11-22T10:27:12Z</time>
      </trkpt>
      <trkpt lat="44.44652" lon="5.27956">
        <ele>505</ele>
        <time>2017-11-22T10:27:42Z</time>
      </trkpt>
      <trkpt lat="44.44621" lon="5.27999">
        <ele>501</ele>
        <time>2017-11-22T10:28:22Z</time>
      </trkpt>
      <trkpt lat="44.44596" lon="5.28021">
        <ele>490</ele>
        <time>2017-11-22T10:28:56Z</time>
      </trkpt>
      <trkpt lat="44.44579" lon="5.28048">
        <ele>483</ele>
        <time>2017-11-22T10:29:18Z</time>
      </trkpt>
      <trkpt lat="44.44589" lon="5.28063">
        <ele>484</ele>
        <time>2017-11-22T10:29:45Z</time>
      </trkpt>
      <trkpt lat="44.44586" lon="5.28076">
        <ele>481</ele>
        <time>2017-11-22T10:29:58Z</time>
      </trkpt>
      <trkpt lat="44.44571" lon="5.28084">
        <ele>476</ele>
        <time>2017-11-22T10:30:18Z</time>
      </trkpt>
      <trkpt lat="44.44549" lon="5.28108">
        <ele>474</ele>
        <time>2017-11-22T10:30:46Z</time>
      </trkpt>
      <trkpt lat="44.44541" lon="5.28119">
        <ele>474</ele>
        <time>2017-11-22T10:31:00Z</time>
      </trkpt>
      <trkpt lat="44.44524" lon="5.28131">
        <ele>473</ele>
        <time>2017-11-22T10:31:29Z</time>
      </trkpt>
      <trkpt lat="44.44512" lon="5.2816">
        <ele>470</ele>
        <time>2017-11-22T10:32:07Z</time>
      </trkpt>
      <trkpt lat="44.44504" lon="5.28187">
        <ele>474</ele>
        <time>2017-11-22T10:32:32Z</time>
      </trkpt>
      <trkpt lat="44.44501" lon="5.28187">
        <ele>474</ele>
        <time>2017-11-22T10:33:51Z</time>
      </trkpt>
      <trkpt lat="44.44471" lon="5.28201">
        <ele>469</ele>
        <time>2017-11-22T10:35:44Z</time>
      </trkpt>
      <trkpt lat="44.44459" lon="5.28217">
        <ele>469</ele>
        <time>2017-11-22T10:35:58Z</time>
      </trkpt>
      <trkpt lat="44.44454" lon="5.28234">
        <ele>469</ele>
        <time>2017-11-22T10:36:09Z</time>
      </trkpt>
      <trkpt lat="44.4444" lon="5.2829">
        <ele>477</ele>
        <time>2017-11-22T10:36:46Z</time>
      </trkpt>
      <trkpt lat="44.44433" lon="5.28312">
        <ele>478</ele>
        <time>2017-11-22T10:37:01Z</time>
      </trkpt>
      <trkpt lat="44.4442" lon="5.2836">
        <ele>484</ele>
        <time>2017-11-22T10:37:30Z</time>
      </trkpt>
      <trkpt lat="44.44407" lon="5.28425">
        <ele>482</ele>
        <time>2017-11-22T10:38:17Z</time>
      </trkpt>
      <trkpt lat="44.44399" lon="5.28488">
        <ele>482</ele>
        <time>2017-11-22T10:39:00Z</time>
      </trkpt>
      <trkpt lat="44.44371" lon="5.28547">
        <ele>481</ele>
        <time>2017-11-22T10:39:48Z</time>
      </trkpt>
      <trkpt lat="44.44348" lon="5.28572">
        <ele>478</ele>
        <time>2017-11-22T10:40:17Z</time>
      </trkpt>
      <trkpt lat="44.44329" lon="5.28589">
        <ele>474</ele>
        <time>2017-11-22T10:40:45Z</time>
      </trkpt>
      <trkpt lat="44.44252" lon="5.2863">
        <ele>477</ele>
        <time>2017-11-22T10:42:16Z</time>
      </trkpt>
      <trkpt lat="44.4425" lon="5.28631">
        <ele>477</ele>
        <time>2017-11-22T10:42:18Z</time>
      </trkpt>
      <trkpt lat="44.44221" lon="5.28651">
        <ele>476</ele>
        <time>2017-11-22T10:42:47Z</time>
      </trkpt>
      <trkpt lat="44.44209" lon="5.28656">
        <ele>476</ele>
        <time>2017-11-22T10:43:17Z</time>
      </trkpt>
      <trkpt lat="44.44172" lon="5.28703">
        <ele>484</ele>
        <time>2017-11-22T10:44:46Z</time>
      </trkpt>
      <trkpt lat="44.44171" lon="5.28705">
        <ele>485</ele>
        <time>2017-11-22T10:44:48Z</time>
      </trkpt>
      <trkpt lat="44.4419" lon="5.28873">
        <ele>487</ele>
        <time>2017-11-22T10:46:25Z</time>
      </trkpt>
      <trkpt lat="44.4419" lon="5.28985">
        <ele>493</ele>
        <time>2017-11-22T10:47:32Z</time>
      </trkpt>
      <trkpt lat="44.44192" lon="5.29052">
        <ele>499</ele>
        <time>2017-11-22T10:48:13Z</time>
      </trkpt>
      <trkpt lat="44.44198" lon="5.29102">
        <ele>503</ele>
        <time>2017-11-22T10:48:44Z</time>
      </trkpt>
      <trkpt lat="44.44211" lon="5.29157">
        <ele>505</ele>
        <time>2017-11-22T10:49:20Z</time>
      </trkpt>
      <trkpt lat="44.44256" lon="5.29247">
        <ele>513</ele>
        <time>2017-11-22T10:50:21Z</time>
      </trkpt>
      <trkpt lat="44.44275" lon="5.29285">
        <ele>519</ele>
        <time>2017-11-22T10:50:50Z</time>
      </trkpt>
      <trkpt lat="44.44263" lon="5.29314">
        <ele>518</ele>
        <time>2017-11-22T10:51:08Z</time>
      </trkpt>
      <trkpt lat="44.4423" lon="5.29378">
        <ele>511</ele>
        <time>2017-11-22T10:51:59Z</time>
      </trkpt>
      <trkpt lat="44.4424" lon="5.29395">
        <ele>513</ele>
        <time>2017-11-22T10:52:11Z</time>
      </trkpt>
      <trkpt lat="44.44251" lon="5.29413">
        <ele>519</ele>
        <time>2017-11-22T10:52:23Z</time>
      </trkpt>
      <trkpt lat="44.4423" lon="5.29453">
        <ele>521</ele>
        <time>2017-11-22T10:52:56Z</time>
      </trkpt>
      <trkpt lat="44.44206" lon="5.29489">
        <ele>523</ele>
        <time>2017-11-22T10:53:36Z</time>
      </trkpt>
      <trkpt lat="44.44197" lon="5.29499">
        <ele>524</ele>
        <time>2017-11-22T10:53:47Z</time>
      </trkpt>
      <trkpt lat="44.44198" lon="5.29542">
        <ele>537</ele>
        <time>2017-11-22T10:54:42Z</time>
      </trkpt>
      <trkpt lat="44.44185" lon="5.29561">
        <ele>539</ele>
        <time>2017-11-22T10:55:16Z</time>
      </trkpt>
      <trkpt lat="44.44148" lon="5.2957">
        <ele>540</ele>
        <time>2017-11-22T10:55:56Z</time>
      </trkpt>
      <trkpt lat="44.4414" lon="5.29584">
        <ele>548</ele>
        <time>2017-11-22T10:56:20Z</time>
      </trkpt>
      <trkpt lat="44.44139" lon="5.29596">
        <ele>548</ele>
        <time>2017-11-22T10:56:33Z</time>
      </trkpt>
      <trkpt lat="44.44135" lon="5.2964">
        <ele>552</ele>
        <time>2017-11-22T10:57:18Z</time>
      </trkpt>
      <trkpt lat="44.44136" lon="5.29643">
        <ele>552</ele>
        <time>2017-11-22T10:57:38Z</time>
      </trkpt>
      <trkpt lat="44.44138" lon="5.29647">
        <ele>553</ele>
        <time>2017-11-22T11:00:14Z</time>
      </trkpt>
      <trkpt lat="44.44173" lon="5.29663">
        <ele>561</ele>
        <time>2017-11-22T11:00:49Z</time>
      </trkpt>
      <trkpt lat="44.44192" lon="5.29712">
        <ele>568</ele>
        <time>2017-11-22T11:01:32Z</time>
      </trkpt>
      <trkpt lat="44.44208" lon="5.29764">
        <ele>578</ele>
        <time>2017-11-22T11:02:15Z</time>
      </trkpt>
      <trkpt lat="44.44237" lon="5.29823">
        <ele>583</ele>
        <time>2017-11-22T11:03:09Z</time>
      </trkpt>
      <trkpt lat="44.44247" lon="5.29851">
        <ele>589</ele>
        <time>2017-11-22T11:03:37Z</time>
      </trkpt>
      <trkpt lat="44.44247" lon="5.29848">
        <ele>588</ele>
        <time>2017-11-22T11:04:07Z</time>
      </trkpt>
      <trkpt lat="44.44263" lon="5.29897">
        <ele>601</ele>
        <time>2017-11-22T11:04:49Z</time>
      </trkpt>
      <trkpt lat="44.44277" lon="5.29927">
        <ele>609</ele>
        <time>2017-11-22T11:05:19Z</time>
      </trkpt>
      <trkpt lat="44.44292" lon="5.29955">
        <ele>612</ele>
        <time>2017-11-22T11:05:45Z</time>
      </trkpt>
      <trkpt lat="44.44305" lon="5.3001">
        <ele>620</ele>
        <time>2017-11-22T11:06:27Z</time>
      </trkpt>
      <trkpt lat="44.44312" lon="5.30044">
        <ele>621</ele>
        <time>2017-11-22T11:06:53Z</time>
      </trkpt>
      <trkpt lat="44.44315" lon="5.30071">
        <ele>623</ele>
        <time>2017-11-22T11:07:16Z</time>
      </trkpt>
      <trkpt lat="44.44314" lon="5.30085">
        <ele>629</ele>
        <time>2017-11-22T11:07:29Z</time>
      </trkpt>
      <trkpt lat="44.44305" lon="5.30121">
        <ele>630</ele>
        <time>2017-11-22T11:07:55Z</time>
      </trkpt>
      <trkpt lat="44.44292" lon="5.30158">
        <ele>631</ele>
        <time>2017-11-22T11:08:23Z</time>
      </trkpt>
      <trkpt lat="44.4428" lon="5.30198">
        <ele>640</ele>
        <time>2017-11-22T11:08:55Z</time>
      </trkpt>
      <trkpt lat="44.4429" lon="5.30242">
        <ele>644</ele>
        <time>2017-11-22T11:09:29Z</time>
      </trkpt>
      <trkpt lat="44.44291" lon="5.3025">
        <ele>644</ele>
        <time>2017-11-22T11:10:57Z</time>
      </trkpt>
      <trkpt lat="44.44304" lon="5.30276">
        <ele>653</ele>
        <time>2017-11-22T11:12:47Z</time>
      </trkpt>
      <trkpt lat="44.44319" lon="5.30299">
        <ele>657</ele>
        <time>2017-11-22T11:13:15Z</time>
      </trkpt>
      <trkpt lat="44.4433" lon="5.3032">
        <ele>664</ele>
        <time>2017-11-22T11:13:41Z</time>
      </trkpt>
      <trkpt lat="44.44332" lon="5.30351">
        <ele>665</ele>
        <time>2017-11-22T11:14:09Z</time>
      </trkpt>
      <trkpt lat="44.44334" lon="5.30369">
        <ele>686</ele>
        <time>2017-11-22T11:14:24Z</time>
      </trkpt>
      <trkpt lat="44.44339" lon="5.30423">
        <ele>682</ele>
        <time>2017-11-22T11:15:02Z</time>
      </trkpt>
      <trkpt lat="44.44331" lon="5.30454">
        <ele>666</ele>
        <time>2017-11-22T11:15:27Z</time>
      </trkpt>
      <trkpt lat="44.44343" lon="5.30522">
        <ele>689</ele>
        <time>2017-11-22T11:16:15Z</time>
      </trkpt>
      <trkpt lat="44.4436" lon="5.30555">
        <ele>692</ele>
        <time>2017-11-22T11:16:46Z</time>
      </trkpt>
      <trkpt lat="44.44375" lon="5.30579">
        <ele>694</ele>
        <time>2017-11-22T11:17:14Z</time>
      </trkpt>
      <trkpt lat="44.444" lon="5.30616">
        <ele>696</ele>
        <time>2017-11-22T11:17:52Z</time>
      </trkpt>
      <trkpt lat="44.44414" lon="5.30626">
        <ele>697</ele>
        <time>2017-11-22T11:18:07Z</time>
      </trkpt>
      <trkpt lat="44.4444" lon="5.30669">
        <ele>714</ele>
        <time>2017-11-22T11:18:55Z</time>
      </trkpt>
      <trkpt lat="44.44433" lon="5.30692">
        <ele>715</ele>
        <time>2017-11-22T11:19:12Z</time>
      </trkpt>
      <trkpt lat="44.44423" lon="5.30712">
        <ele>716</ele>
        <time>2017-11-22T11:20:51Z</time>
      </trkpt>
      <trkpt lat="44.44386" lon="5.30849">
        <ele>717</ele>
        <time>2017-11-22T11:22:47Z</time>
      </trkpt>
      <trkpt lat="44.44384" lon="5.30856">
        <ele>717</ele>
        <time>2017-11-22T11:22:52Z</time>
      </trkpt>
      <trkpt lat="44.44304" lon="5.31016">
        <ele>718</ele>
        <time>2017-11-22T11:24:36Z</time>
      </trkpt>
      <trkpt lat="44.44249" lon="5.31155">
        <ele>715</ele>
        <time>2017-11-22T11:25:56Z</time>
      </trkpt>
      <trkpt lat="44.44186" lon="5.31374">
        <ele>721</ele>
        <time>2017-11-22T11:28:07Z</time>
      </trkpt>
      <trkpt lat="44.44156" lon="5.31533">
        <ele>715</ele>
        <time>2017-11-22T11:29:47Z</time>
      </trkpt>
      <trkpt lat="44.4417" lon="5.31532">
        <ele>724</ele>
        <time>2017-11-22T11:30:55Z</time>
      </trkpt>
      <trkpt lat="44.44205" lon="5.31539">
        <ele>726</ele>
        <time>2017-11-22T11:31:41Z</time>
      </trkpt>
      <trkpt lat="44.44233" lon="5.31538">
        <ele>728</ele>
        <time>2017-11-22T11:32:11Z</time>
      </trkpt>
      <trkpt lat="44.44258" lon="5.31533">
        <ele>738</ele>
        <time>2017-11-22T11:32:39Z</time>
      </trkpt>
      <trkpt lat="44.44289" lon="5.31502">
        <ele>741</ele>
        <time>2017-11-22T11:33:29Z</time>
      </trkpt>
      <trkpt lat="44.44313" lon="5.31484">
        <ele>748</ele>
        <time>2017-11-22T11:34:20Z</time>
      </trkpt>
      <trkpt lat="44.44334" lon="5.31471">
        <ele>758</ele>
        <time>2017-11-22T11:34:48Z</time>
      </trkpt>
      <trkpt lat="44.44352" lon="5.31468">
        <ele>759</ele>
        <time>2017-11-22T11:35:10Z</time>
      </trkpt>
      <trkpt lat="44.44378" lon="5.31453">
        <ele>762</ele>
        <time>2017-11-22T11:35:57Z</time>
      </trkpt>
      <trkpt lat="44.44395" lon="5.31453">
        <ele>764</ele>
        <time>2017-11-22T11:36:25Z</time>
      </trkpt>
      <trkpt lat="44.44417" lon="5.31454">
        <ele>774</ele>
        <time>2017-11-22T11:36:53Z</time>
      </trkpt>
      <trkpt lat="44.44438" lon="5.31447">
        <ele>776</ele>
        <time>2017-11-22T11:37:17Z</time>
      </trkpt>
      <trkpt lat="44.44469" lon="5.31417">
        <ele>787</ele>
        <time>2017-11-22T11:38:12Z</time>
      </trkpt>
      <trkpt lat="44.44485" lon="5.31406">
        <ele>790</ele>
        <time>2017-11-22T11:38:38Z</time>
      </trkpt>
      <trkpt lat="44.445" lon="5.31395">
        <ele>801</ele>
        <time>2017-11-22T11:39:09Z</time>
      </trkpt>
      <trkpt lat="44.44514" lon="5.31373">
        <ele>804</ele>
        <time>2017-11-22T11:39:40Z</time>
      </trkpt>
      <trkpt lat="44.44525" lon="5.31357">
        <ele>805</ele>
        <time>2017-11-22T11:40:08Z</time>
      </trkpt>
      <trkpt lat="44.44549" lon="5.31368">
        <ele>808</ele>
        <time>2017-11-22T11:40:49Z</time>
      </trkpt>
      <trkpt lat="44.44564" lon="5.31377">
        <ele>809</ele>
        <time>2017-11-22T11:41:22Z</time>
      </trkpt>
      <trkpt lat="44.44578" lon="5.31378">
        <ele>809</ele>
        <time>2017-11-22T11:41:49Z</time>
      </trkpt>
      <trkpt lat="44.44594" lon="5.3136">
        <ele>822</ele>
        <time>2017-11-22T11:42:31Z</time>
      </trkpt>
      <trkpt lat="44.44607" lon="5.31347">
        <ele>823</ele>
        <time>2017-11-22T11:42:59Z</time>
      </trkpt>
      <trkpt lat="44.44618" lon="5.31338">
        <ele>825</ele>
        <time>2017-11-22T11:43:27Z</time>
      </trkpt>
      <trkpt lat="44.44623" lon="5.31329">
        <ele>836</ele>
        <time>2017-11-22T11:43:58Z</time>
      </trkpt>
      <trkpt lat="44.44621" lon="5.3133">
        <ele>836</ele>
        <time>2017-11-22T11:44:32Z</time>
      </trkpt>
      <trkpt lat="44.44642" lon="5.31315">
        <ele>839</ele>
        <time>2017-11-22T11:47:42Z</time>
      </trkpt>
      <trkpt lat="44.44656" lon="5.31304">
        <ele>840</ele>
        <time>2017-11-22T11:48:13Z</time>
      </trkpt>
      <trkpt lat="44.44669" lon="5.31297">
        <ele>850</ele>
        <time>2017-11-22T11:48:43Z</time>
      </trkpt>
      <trkpt lat="44.44681" lon="5.31291">
        <ele>851</ele>
        <time>2017-11-22T11:49:09Z</time>
      </trkpt>
      <trkpt lat="44.44689" lon="5.31291">
        <ele>852</ele>
        <time>2017-11-22T11:49:24Z</time>
      </trkpt>
      <trkpt lat="44.44703" lon="5.31282">
        <ele>854</ele>
        <time>2017-11-22T11:49:53Z</time>
      </trkpt>
      <trkpt lat="44.44714" lon="5.31273">
        <ele>856</ele>
        <time>2017-11-22T11:50:22Z</time>
      </trkpt>
      <trkpt lat="44.44715" lon="5.31263">
        <ele>858</ele>
        <time>2017-11-22T11:53:27Z</time>
      </trkpt>
      <trkpt lat="44.44729" lon="5.31251">
        <ele>863</ele>
        <time>2017-11-22T11:54:16Z</time>
      </trkpt>
      <trkpt lat="44.44745" lon="5.31245">
        <ele>875</ele>
        <time>2017-11-22T11:54:48Z</time>
      </trkpt>
      <trkpt lat="44.44754" lon="5.31246">
        <ele>880</ele>
        <time>2017-11-22T11:55:37Z</time>
      </trkpt>
      <trkpt lat="44.44769" lon="5.31243">
        <ele>886</ele>
        <time>2017-11-22T11:56:07Z</time>
      </trkpt>
      <trkpt lat="44.4478" lon="5.31233">
        <ele>890</ele>
        <time>2017-11-22T11:56:33Z</time>
      </trkpt>
      <trkpt lat="44.4479" lon="5.31219">
        <ele>893</ele>
        <time>2017-11-22T11:57:35Z</time>
      </trkpt>
      <trkpt lat="44.44798" lon="5.31214">
        <ele>895</ele>
        <time>2017-11-22T11:57:49Z</time>
      </trkpt>
      <trkpt lat="44.44813" lon="5.31199">
        <ele>900</ele>
        <time>2017-11-22T11:58:18Z</time>
      </trkpt>
      <trkpt lat="44.44833" lon="5.31165">
        <ele>921</ele>
        <time>2017-11-22T11:59:02Z</time>
      </trkpt>
      <trkpt lat="44.44846" lon="5.31155">
        <ele>923</ele>
        <time>2017-11-22T11:59:30Z</time>
      </trkpt>
      <trkpt lat="44.44852" lon="5.31149">
        <ele>923</ele>
        <time>2017-11-22T11:59:45Z</time>
      </trkpt>
      <trkpt lat="44.44861" lon="5.31136">
        <ele>924</ele>
        <time>2017-11-22T12:00:10Z</time>
      </trkpt>
      <trkpt lat="44.44872" lon="5.31124">
        <ele>925</ele>
        <time>2017-11-22T12:00:38Z</time>
      </trkpt>
      <trkpt lat="44.44883" lon="5.31115">
        <ele>927</ele>
        <time>2017-11-22T12:01:03Z</time>
      </trkpt>
      <trkpt lat="44.44892" lon="5.31102">
        <ele>930</ele>
        <time>2017-11-22T12:01:30Z</time>
      </trkpt>
      <trkpt lat="44.44906" lon="5.31079">
        <ele>944</ele>
        <time>2017-11-22T12:01:59Z</time>
      </trkpt>
      <trkpt lat="44.44911" lon="5.31067">
        <ele>944</ele>
        <time>2017-11-22T12:02:12Z</time>
      </trkpt>
      <trkpt lat="44.44927" lon="5.31048">
        <ele>947</ele>
        <time>2017-11-22T12:02:40Z</time>
      </trkpt>
      <trkpt lat="44.44937" lon="5.31023">
        <ele>951</ele>
        <time>2017-11-22T12:04:20Z</time>
      </trkpt>
      <trkpt lat="44.4495" lon="5.31004">
        <ele>952</ele>
        <time>2017-11-22T12:07:13Z</time>
      </trkpt>
      <trkpt lat="44.44964" lon="5.30992">
        <ele>968</ele>
        <time>2017-11-22T12:07:40Z</time>
      </trkpt>
      <trkpt lat="44.44979" lon="5.30976">
        <ele>970</ele>
        <time>2017-11-22T12:08:07Z</time>
      </trkpt>
      <trkpt lat="44.44982" lon="5.3097">
        <ele>971</ele>
        <time>2017-11-22T12:08:13Z</time>
      </trkpt>
      <trkpt lat="44.45" lon="5.30936">
        <ele>982</ele>
        <time>2017-11-22T12:08:55Z</time>
      </trkpt>
      <trkpt lat="44.45011" lon="5.3092">
        <ele>990</ele>
        <time>2017-11-22T12:09:22Z</time>
      </trkpt>
      <trkpt lat="44.45024" lon="5.30915">
        <ele>1001</ele>
        <time>2017-11-22T12:09:48Z</time>
      </trkpt>
      <trkpt lat="44.4504" lon="5.30911">
        <ele>1004</ele>
        <time>2017-11-22T12:10:18Z</time>
      </trkpt>
      <trkpt lat="44.45051" lon="5.30916">
        <ele>1005</ele>
        <time>2017-11-22T12:10:43Z</time>
      </trkpt>
      <trkpt lat="44.45063" lon="5.30923">
        <ele>992</ele>
        <time>2017-11-22T12:11:09Z</time>
      </trkpt>
      <trkpt lat="44.4507" lon="5.30925">
        <ele>994</ele>
        <time>2017-11-22T12:11:22Z</time>
      </trkpt>
      <trkpt lat="44.4508" lon="5.30923">
        <ele>1000</ele>
        <time>2017-11-22T12:12:11Z</time>
      </trkpt>
      <trkpt lat="44.45085" lon="5.30906">
        <ele>1005</ele>
        <time>2017-11-22T12:14:31Z</time>
      </trkpt>
      <trkpt lat="44.45093" lon="5.30899">
        <ele>1003</ele>
        <time>2017-11-22T12:15:01Z</time>
      </trkpt>
      <trkpt lat="44.45101" lon="5.30886">
        <ele>1003</ele>
        <time>2017-11-22T12:15:26Z</time>
      </trkpt>
      <trkpt lat="44.4511" lon="5.30879">
        <ele>1002</ele>
        <time>2017-11-22T12:15:46Z</time>
      </trkpt>
      <trkpt lat="44.45116" lon="5.30867">
        <ele>1003</ele>
        <time>2017-11-22T12:16:01Z</time>
      </trkpt>
      <trkpt lat="44.4512" lon="5.30833">
        <ele>1028</ele>
        <time>2017-11-22T12:16:35Z</time>
      </trkpt>
      <trkpt lat="44.45134" lon="5.3082">
        <ele>1026</ele>
        <time>2017-11-22T12:17:01Z</time>
      </trkpt>
      <trkpt lat="44.4514" lon="5.30809">
        <ele>1027</ele>
        <time>2017-11-22T12:17:34Z</time>
      </trkpt>
      <trkpt lat="44.45141" lon="5.30809">
        <ele>1027</ele>
        <time>2017-11-22T12:18:49Z</time>
      </trkpt>
      <trkpt lat="44.45144" lon="5.30791">
        <ele>1032</ele>
        <time>2017-11-22T12:20:37Z</time>
      </trkpt>
      <trkpt lat="44.45143" lon="5.30784">
        <ele>1034</ele>
        <time>2017-11-22T12:21:23Z</time>
      </trkpt>
      <trkpt lat="44.45152" lon="5.30748">
        <ele>1055</ele>
        <time>2017-11-22T12:22:07Z</time>
      </trkpt>
      <trkpt lat="44.45154" lon="5.30722">
        <ele>1056</ele>
        <time>2017-11-22T12:22:34Z</time>
      </trkpt>
      <trkpt lat="44.45154" lon="5.3072">
        <ele>1056</ele>
        <time>2017-11-22T12:22:36Z</time>
      </trkpt>
      <trkpt lat="44.45161" lon="5.30699">
        <ele>1062</ele>
        <time>2017-11-22T12:23:19Z</time>
      </trkpt>
      <trkpt lat="44.4517" lon="5.3069">
        <ele>1070</ele>
        <time>2017-11-22T12:23:52Z</time>
      </trkpt>
      <trkpt lat="44.45175" lon="5.30671">
        <ele>1078</ele>
        <time>2017-11-22T12:25:05Z</time>
      </trkpt>
      <trkpt lat="44.45183" lon="5.30642">
        <ele>1089</ele>
        <time>2017-11-22T12:25:48Z</time>
      </trkpt>
      <trkpt lat="44.45194" lon="5.30637">
        <ele>1089</ele>
        <time>2017-11-22T12:26:13Z</time>
      </trkpt>
      <trkpt lat="44.45199" lon="5.3064">
        <ele>1089</ele>
        <time>2017-11-22T12:26:28Z</time>
      </trkpt>
      <trkpt lat="44.45197" lon="5.30642">
        <ele>1089</ele>
        <time>2017-11-22T12:29:01Z</time>
      </trkpt>
      <trkpt lat="44.45204" lon="5.30632">
        <ele>1090</ele>
        <time>2017-11-22T12:29:47Z</time>
      </trkpt>
      <trkpt lat="44.45203" lon="5.30632">
        <ele>1090</ele>
        <time>2017-11-22T12:31:28Z</time>
      </trkpt>
      <trkpt lat="44.45201" lon="5.30627">
        <ele>1090</ele>
        <time>2017-11-22T12:51:30Z</time>
      </trkpt>
      <trkpt lat="44.45204" lon="5.30628">
        <ele>1090</ele>
        <time>2017-11-22T13:24:05Z</time>
      </trkpt>
      <trkpt lat="44.45206" lon="5.30634">
        <ele>1089</ele>
        <time>2017-11-22T13:30:42Z</time>
      </trkpt>
      <trkpt lat="44.45225" lon="5.30637">
        <ele>1089</ele>
        <time>2017-11-22T13:31:37Z</time>
      </trkpt>
      <trkpt lat="44.45235" lon="5.30621">
        <ele>1093</ele>
        <time>2017-11-22T13:34:06Z</time>
      </trkpt>
      <trkpt lat="44.45238" lon="5.30628">
        <ele>1091</ele>
        <time>2017-11-22T13:39:01Z</time>
      </trkpt>
      <trkpt lat="44.4525" lon="5.30601">
        <ele>1098</ele>
        <time>2017-11-22T13:39:30Z</time>
      </trkpt>
      <trkpt lat="44.45258" lon="5.30598">
        <ele>1099</ele>
        <time>2017-11-22T13:39:41Z</time>
      </trkpt>
      <trkpt lat="44.45267" lon="5.30599">
        <ele>1095</ele>
        <time>2017-11-22T13:39:52Z</time>
      </trkpt>
      <trkpt lat="44.45276" lon="5.30602">
        <ele>1092</ele>
        <time>2017-11-22T13:40:04Z</time>
      </trkpt>
      <trkpt lat="44.453" lon="5.30608">
        <ele>1087</ele>
        <time>2017-11-22T13:40:37Z</time>
      </trkpt>
      <trkpt lat="44.45311" lon="5.30605">
        <ele>1088</ele>
        <time>2017-11-22T13:41:54Z</time>
      </trkpt>
      <trkpt lat="44.45312" lon="5.30606">
        <ele>1088</ele>
        <time>2017-11-22T13:42:26Z</time>
      </trkpt>
      <trkpt lat="44.45311" lon="5.30599">
        <ele>1090</ele>
        <time>2017-11-22T13:45:43Z</time>
      </trkpt>
      <trkpt lat="44.45318" lon="5.30595">
        <ele>1092</ele>
        <time>2017-11-22T13:45:53Z</time>
      </trkpt>
      <trkpt lat="44.4533" lon="5.3058">
        <ele>1106</ele>
        <time>2017-11-22T13:47:15Z</time>
      </trkpt>
      <trkpt lat="44.45377" lon="5.30513">
        <ele>1116</ele>
        <time>2017-11-22T13:48:14Z</time>
      </trkpt>
      <trkpt lat="44.45379" lon="5.30506">
        <ele>1117</ele>
        <time>2017-11-22T13:48:45Z</time>
      </trkpt>
      <trkpt lat="44.45387" lon="5.3049">
        <ele>1129</ele>
        <time>2017-11-22T13:48:59Z</time>
      </trkpt>
      <trkpt lat="44.45402" lon="5.30469">
        <ele>1128</ele>
        <time>2017-11-22T13:49:23Z</time>
      </trkpt>
      <trkpt lat="44.45419" lon="5.30455">
        <ele>1115</ele>
        <time>2017-11-22T13:49:50Z</time>
      </trkpt>
      <trkpt lat="44.45439" lon="5.30438">
        <ele>1115</ele>
        <time>2017-11-22T13:51:25Z</time>
      </trkpt>
      <trkpt lat="44.45475" lon="5.30392">
        <ele>1113</ele>
        <time>2017-11-22T13:52:22Z</time>
      </trkpt>
      <trkpt lat="44.45495" lon="5.30372">
        <ele>1113</ele>
        <time>2017-11-22T13:52:54Z</time>
      </trkpt>
      <trkpt lat="44.45514" lon="5.30364">
        <ele>1104</ele>
        <time>2017-11-22T13:53:10Z</time>
      </trkpt>
      <trkpt lat="44.45533" lon="5.30353">
        <ele>1103</ele>
        <time>2017-11-22T13:53:27Z</time>
      </trkpt>
      <trkpt lat="44.45578" lon="5.30316">
        <ele>1106</ele>
        <time>2017-11-22T13:54:40Z</time>
      </trkpt>
      <trkpt lat="44.45586" lon="5.3031">
        <ele>1105</ele>
        <time>2017-11-22T13:55:09Z</time>
      </trkpt>
      <trkpt lat="44.45622" lon="5.30304">
        <ele>1104</ele>
        <time>2017-11-22T13:55:55Z</time>
      </trkpt>
      <trkpt lat="44.45629" lon="5.30303">
        <ele>1104</ele>
        <time>2017-11-22T13:56:05Z</time>
      </trkpt>
      <trkpt lat="44.45696" lon="5.30227">
        <ele>1116</ele>
        <time>2017-11-22T13:57:21Z</time>
      </trkpt>
      <trkpt lat="44.45704" lon="5.3022">
        <ele>1117</ele>
        <time>2017-11-22T13:57:33Z</time>
      </trkpt>
      <trkpt lat="44.4571" lon="5.30211">
        <ele>1118</ele>
        <time>2017-11-22T13:57:45Z</time>
      </trkpt>
      <trkpt lat="44.45723" lon="5.30201">
        <ele>1120</ele>
        <time>2017-11-22T13:58:08Z</time>
      </trkpt>
      <trkpt lat="44.45739" lon="5.30188">
        <ele>1124</ele>
        <time>2017-11-22T13:58:36Z</time>
      </trkpt>
      <trkpt lat="44.45752" lon="5.30175">
        <ele>1123</ele>
        <time>2017-11-22T13:59:03Z</time>
      </trkpt>
      <trkpt lat="44.45752" lon="5.30139">
        <ele>1130</ele>
        <time>2017-11-22T14:00:37Z</time>
      </trkpt>
      <trkpt lat="44.45761" lon="5.301">
        <ele>1139</ele>
        <time>2017-11-22T14:01:42Z</time>
      </trkpt>
      <trkpt lat="44.4576" lon="5.30086">
        <ele>1144</ele>
        <time>2017-11-22T14:06:04Z</time>
      </trkpt>
      <trkpt lat="44.45763" lon="5.30075">
        <ele>1154</ele>
        <time>2017-11-22T14:06:16Z</time>
      </trkpt>
      <trkpt lat="44.45782" lon="5.30064">
        <ele>1154</ele>
        <time>2017-11-22T14:06:50Z</time>
      </trkpt>
      <trkpt lat="44.45798" lon="5.30056">
        <ele>1154</ele>
        <time>2017-11-22T14:07:11Z</time>
      </trkpt>
      <trkpt lat="44.45817" lon="5.30046">
        <ele>1155</ele>
        <time>2017-11-22T14:07:38Z</time>
      </trkpt>
      <trkpt lat="44.45836" lon="5.3003">
        <ele>1145</ele>
        <time>2017-11-22T14:08:03Z</time>
      </trkpt>
      <trkpt lat="44.45868" lon="5.29994">
        <ele>1162</ele>
        <time>2017-11-22T14:08:41Z</time>
      </trkpt>
      <trkpt lat="44.45872" lon="5.29985">
        <ele>1162</ele>
        <time>2017-11-22T14:08:47Z</time>
      </trkpt>
      <trkpt lat="44.45908" lon="5.29898">
        <ele>1172</ele>
        <time>2017-11-22T14:09:45Z</time>
      </trkpt>
      <trkpt lat="44.45908" lon="5.29896">
        <ele>1172</ele>
        <time>2017-11-22T14:09:55Z</time>
      </trkpt>
      <trkpt lat="44.45903" lon="5.29862">
        <ele>1174</ele>
        <time>2017-11-22T14:10:40Z</time>
      </trkpt>
      <trkpt lat="44.45908" lon="5.29791">
        <ele>1181</ele>
        <time>2017-11-22T14:11:44Z</time>
      </trkpt>
      <trkpt lat="44.45908" lon="5.29782">
        <ele>1182</ele>
        <time>2017-11-22T14:12:05Z</time>
      </trkpt>
      <trkpt lat="44.45913" lon="5.29757">
        <ele>1187</ele>
        <time>2017-11-22T14:12:37Z</time>
      </trkpt>
      <trkpt lat="44.45935" lon="5.29746">
        <ele>1185</ele>
        <time>2017-11-22T14:13:15Z</time>
      </trkpt>
      <trkpt lat="44.45937" lon="5.29719">
        <ele>1185</ele>
        <time>2017-11-22T14:13:50Z</time>
      </trkpt>
      <trkpt lat="44.45938" lon="5.29722">
        <ele>1184</ele>
        <time>2017-11-22T14:14:30Z</time>
      </trkpt>
      <trkpt lat="44.45948" lon="5.29693">
        <ele>1186</ele>
        <time>2017-11-22T14:15:32Z</time>
      </trkpt>
      <trkpt lat="44.45964" lon="5.29672">
        <ele>1186</ele>
        <time>2017-11-22T14:15:57Z</time>
      </trkpt>
      <trkpt lat="44.45968" lon="5.29669">
        <ele>1186</ele>
        <time>2017-11-22T14:16:09Z</time>
      </trkpt>
      <trkpt lat="44.45996" lon="5.29624">
        <ele>1196</ele>
        <time>2017-11-22T14:16:47Z</time>
      </trkpt>
      <trkpt lat="44.46037" lon="5.29579">
        <ele>1199</ele>
        <time>2017-11-22T14:17:36Z</time>
      </trkpt>
      <trkpt lat="44.46101" lon="5.29524">
        <ele>1190</ele>
        <time>2017-11-22T14:19:06Z</time>
      </trkpt>
      <trkpt lat="44.46159" lon="5.29429">
        <ele>1207</ele>
        <time>2017-11-22T14:20:24Z</time>
      </trkpt>
      <trkpt lat="44.46187" lon="5.29398">
        <ele>1206</ele>
        <time>2017-11-22T14:20:58Z</time>
      </trkpt>
      <trkpt lat="44.46221" lon="5.29358">
        <ele>1206</ele>
        <time>2017-11-22T14:21:44Z</time>
      </trkpt>
      <trkpt lat="44.46235" lon="5.29329">
        <ele>1217</ele>
        <time>2017-11-22T14:22:15Z</time>
      </trkpt>
      <trkpt lat="44.46236" lon="5.29327">
        <ele>1217</ele>
        <time>2017-11-22T14:22:17Z</time>
      </trkpt>
      <trkpt lat="44.46289" lon="5.29262">
        <ele>1212</ele>
        <time>2017-11-22T14:23:28Z</time>
      </trkpt>
      <trkpt lat="44.46296" lon="5.29235">
        <ele>1223</ele>
        <time>2017-11-22T14:23:45Z</time>
      </trkpt>
      <trkpt lat="44.46335" lon="5.2919">
        <ele>1214</ele>
        <time>2017-11-22T14:24:31Z</time>
      </trkpt>
      <trkpt lat="44.46431" lon="5.29083">
        <ele>1222</ele>
        <time>2017-11-22T14:26:16Z</time>
      </trkpt>
      <trkpt lat="44.46461" lon="5.29006">
        <ele>1215</ele>
        <time>2017-11-22T14:27:09Z</time>
      </trkpt>
      <trkpt lat="44.46462" lon="5.28999">
        <ele>1222</ele>
        <time>2017-11-22T14:27:13Z</time>
      </trkpt>
      <trkpt lat="44.46459" lon="5.28937">
        <ele>1225</ele>
        <time>2017-11-22T14:28:03Z</time>
      </trkpt>
      <trkpt lat="44.46463" lon="5.28932">
        <ele>1225</ele>
        <time>2017-11-22T14:28:07Z</time>
      </trkpt>
      <trkpt lat="44.46479" lon="5.28874">
        <ele>1229</ele>
        <time>2017-11-22T14:29:02Z</time>
      </trkpt>
      <trkpt lat="44.46495" lon="5.28814">
        <ele>1233</ele>
        <time>2017-11-22T14:30:05Z</time>
      </trkpt>
      <trkpt lat="44.46495" lon="5.28807">
        <ele>1233</ele>
        <time>2017-11-22T14:30:22Z</time>
      </trkpt>
      <trkpt lat="44.46499" lon="5.28772">
        <ele>1236</ele>
        <time>2017-11-22T14:30:46Z</time>
      </trkpt>
      <trkpt lat="44.46505" lon="5.28743">
        <ele>1241</ele>
        <time>2017-11-22T14:31:14Z</time>
      </trkpt>
      <trkpt lat="44.46519" lon="5.28726">
        <ele>1241</ele>
        <time>2017-11-22T14:31:42Z</time>
      </trkpt>
      <trkpt lat="44.46536" lon="5.28694">
        <ele>1242</ele>
        <time>2017-11-22T14:32:15Z</time>
      </trkpt>
      <trkpt lat="44.46542" lon="5.2864">
        <ele>1254</ele>
        <time>2017-11-22T14:33:02Z</time>
      </trkpt>
      <trkpt lat="44.46527" lon="5.28539">
        <ele>1258</ele>
        <time>2017-11-22T14:34:15Z</time>
      </trkpt>
      <trkpt lat="44.46518" lon="5.28525">
        <ele>1256</ele>
        <time>2017-11-22T14:34:29Z</time>
      </trkpt>
      <trkpt lat="44.46509" lon="5.28449">
        <ele>1255</ele>
        <time>2017-11-22T14:35:38Z</time>
      </trkpt>
      <trkpt lat="44.46501" lon="5.28407">
        <ele>1249</ele>
        <time>2017-11-22T14:36:06Z</time>
      </trkpt>
      <trkpt lat="44.46501" lon="5.28404">
        <ele>1250</ele>
        <time>2017-11-22T14:36:08Z</time>
      </trkpt>
      <trkpt lat="44.46493" lon="5.28385">
        <ele>1236</ele>
        <time>2017-11-22T14:36:24Z</time>
      </trkpt>
      <trkpt lat="44.4648" lon="5.28366">
        <ele>1234</ele>
        <time>2017-11-22T14:36:50Z</time>
      </trkpt>
      <trkpt lat="44.46472" lon="5.28352">
        <ele>1233</ele>
        <time>2017-11-22T14:37:04Z</time>
      </trkpt>
      <trkpt lat="44.4646" lon="5.2833">
        <ele>1228</ele>
        <time>2017-11-22T14:37:25Z</time>
      </trkpt>
      <trkpt lat="44.46454" lon="5.28311">
        <ele>1226</ele>
        <time>2017-11-22T14:37:40Z</time>
      </trkpt>
      <trkpt lat="44.46453" lon="5.28309">
        <ele>1226</ele>
        <time>2017-11-22T14:37:46Z</time>
      </trkpt>
      <trkpt lat="44.46447" lon="5.28295">
        <ele>1224</ele>
        <time>2017-11-22T14:38:00Z</time>
      </trkpt>
      <trkpt lat="44.46436" lon="5.28279">
        <ele>1222</ele>
        <time>2017-11-22T14:38:17Z</time>
      </trkpt>
      <trkpt lat="44.46419" lon="5.28258">
        <ele>1214</ele>
        <time>2017-11-22T14:39:00Z</time>
      </trkpt>
      <trkpt lat="44.46412" lon="5.28237">
        <ele>1201</ele>
        <time>2017-11-22T14:39:19Z</time>
      </trkpt>
      <trkpt lat="44.46399" lon="5.28226">
        <ele>1195</ele>
        <time>2017-11-22T14:39:41Z</time>
      </trkpt>
      <trkpt lat="44.46393" lon="5.28217">
        <ele>1193</ele>
        <time>2017-11-22T14:39:54Z</time>
      </trkpt>
      <trkpt lat="44.46383" lon="5.28195">
        <ele>1190</ele>
        <time>2017-11-22T14:40:22Z</time>
      </trkpt>
      <trkpt lat="44.46375" lon="5.28182">
        <ele>1188</ele>
        <time>2017-11-22T14:40:41Z</time>
      </trkpt>
      <trkpt lat="44.46375" lon="5.28179">
        <ele>1187</ele>
        <time>2017-11-22T14:40:43Z</time>
      </trkpt>
      <trkpt lat="44.46371" lon="5.28161">
        <ele>1178</ele>
        <time>2017-11-22T14:41:10Z</time>
      </trkpt>
      <trkpt lat="44.46352" lon="5.28141">
        <ele>1174</ele>
        <time>2017-11-22T14:42:35Z</time>
      </trkpt>
      <trkpt lat="44.46351" lon="5.28142">
        <ele>1174</ele>
        <time>2017-11-22T14:42:54Z</time>
      </trkpt>
      <trkpt lat="44.46335" lon="5.28151">
        <ele>1171</ele>
        <time>2017-11-22T14:43:39Z</time>
      </trkpt>
      <trkpt lat="44.46334" lon="5.2815">
        <ele>1171</ele>
        <time>2017-11-22T14:43:40Z</time>
      </trkpt>
      <trkpt lat="44.46328" lon="5.28143">
        <ele>1155</ele>
        <time>2017-11-22T14:44:37Z</time>
      </trkpt>
      <trkpt lat="44.4632" lon="5.28141">
        <ele>1153</ele>
        <time>2017-11-22T14:45:27Z</time>
      </trkpt>
      <trkpt lat="44.46304" lon="5.28125">
        <ele>1147</ele>
        <time>2017-11-22T14:46:00Z</time>
      </trkpt>
      <trkpt lat="44.46299" lon="5.28117">
        <ele>1146</ele>
        <time>2017-11-22T14:46:12Z</time>
      </trkpt>
      <trkpt lat="44.46297" lon="5.28086">
        <ele>1144</ele>
        <time>2017-11-22T14:47:07Z</time>
      </trkpt>
      <trkpt lat="44.46287" lon="5.28075">
        <ele>1131</ele>
        <time>2017-11-22T14:47:34Z</time>
      </trkpt>
      <trkpt lat="44.46282" lon="5.28072">
        <ele>1130</ele>
        <time>2017-11-22T14:47:45Z</time>
      </trkpt>
      <trkpt lat="44.46277" lon="5.28066">
        <ele>1129</ele>
        <time>2017-11-22T14:47:58Z</time>
      </trkpt>
      <trkpt lat="44.46269" lon="5.28044">
        <ele>1126</ele>
        <time>2017-11-22T14:48:43Z</time>
      </trkpt>
      <trkpt lat="44.46267" lon="5.28027">
        <ele>1123</ele>
        <time>2017-11-22T14:49:10Z</time>
      </trkpt>
      <trkpt lat="44.46271" lon="5.28007">
        <ele>1120</ele>
        <time>2017-11-22T14:50:00Z</time>
      </trkpt>
      <trkpt lat="44.46269" lon="5.27981">
        <ele>1112</ele>
        <time>2017-11-22T14:50:28Z</time>
      </trkpt>
      <trkpt lat="44.46266" lon="5.27983">
        <ele>1111</ele>
        <time>2017-11-22T14:50:33Z</time>
      </trkpt>
      <trkpt lat="44.46252" lon="5.27997">
        <ele>1106</ele>
        <time>2017-11-22T14:50:49Z</time>
      </trkpt>
      <trkpt lat="44.46236" lon="5.2801">
        <ele>1101</ele>
        <time>2017-11-22T14:51:24Z</time>
      </trkpt>
      <trkpt lat="44.46231" lon="5.28002">
        <ele>1100</ele>
        <time>2017-11-22T14:51:36Z</time>
      </trkpt>
      <trkpt lat="44.4623" lon="5.27961">
        <ele>1085</ele>
        <time>2017-11-22T14:52:16Z</time>
      </trkpt>
      <trkpt lat="44.46223" lon="5.2795">
        <ele>1083</ele>
        <time>2017-11-22T14:52:49Z</time>
      </trkpt>
      <trkpt lat="44.46214" lon="5.27956">
        <ele>1082</ele>
        <time>2017-11-22T14:53:03Z</time>
      </trkpt>
      <trkpt lat="44.46205" lon="5.27957">
        <ele>1080</ele>
        <time>2017-11-22T14:53:17Z</time>
      </trkpt>
      <trkpt lat="44.46197" lon="5.27955">
        <ele>1078</ele>
        <time>2017-11-22T14:53:30Z</time>
      </trkpt>
      <trkpt lat="44.46192" lon="5.2795">
        <ele>1077</ele>
        <time>2017-11-22T14:53:42Z</time>
      </trkpt>
      <trkpt lat="44.46184" lon="5.27933">
        <ele>1072</ele>
        <time>2017-11-22T14:54:08Z</time>
      </trkpt>
      <trkpt lat="44.46171" lon="5.27925">
        <ele>1064</ele>
        <time>2017-11-22T14:54:35Z</time>
      </trkpt>
      <trkpt lat="44.46168" lon="5.27916">
        <ele>1058</ele>
        <time>2017-11-22T14:54:48Z</time>
      </trkpt>
      <trkpt lat="44.46161" lon="5.2789">
        <ele>1045</ele>
        <time>2017-11-22T14:55:17Z</time>
      </trkpt>
      <trkpt lat="44.46153" lon="5.27881">
        <ele>1043</ele>
        <time>2017-11-22T14:55:38Z</time>
      </trkpt>
      <trkpt lat="44.46142" lon="5.27899">
        <ele>1042</ele>
        <time>2017-11-22T14:56:03Z</time>
      </trkpt>
      <trkpt lat="44.46128" lon="5.27915">
        <ele>1038</ele>
        <time>2017-11-22T14:56:26Z</time>
      </trkpt>
      <trkpt lat="44.46109" lon="5.27931">
        <ele>1038</ele>
        <time>2017-11-22T14:56:56Z</time>
      </trkpt>
      <trkpt lat="44.46101" lon="5.27931">
        <ele>1035</ele>
        <time>2017-11-22T14:57:09Z</time>
      </trkpt>
      <trkpt lat="44.46099" lon="5.27922">
        <ele>1032</ele>
        <time>2017-11-22T14:58:50Z</time>
      </trkpt>
      <trkpt lat="44.461" lon="5.27901">
        <ele>1030</ele>
        <time>2017-11-22T14:59:10Z</time>
      </trkpt>
      <trkpt lat="44.46095" lon="5.27894">
        <ele>1030</ele>
        <time>2017-11-22T14:59:20Z</time>
      </trkpt>
      <trkpt lat="44.46083" lon="5.27868">
        <ele>1006</ele>
        <time>2017-11-22T14:59:51Z</time>
      </trkpt>
      <trkpt lat="44.46068" lon="5.27837">
        <ele>1008</ele>
        <time>2017-11-22T15:00:17Z</time>
      </trkpt>
      <trkpt lat="44.46057" lon="5.27777">
        <ele>1002</ele>
        <time>2017-11-22T15:01:08Z</time>
      </trkpt>
      <trkpt lat="44.46047" lon="5.27776">
        <ele>999</ele>
        <time>2017-11-22T15:01:46Z</time>
      </trkpt>
      <trkpt lat="44.46032" lon="5.27752">
        <ele>995</ele>
        <time>2017-11-22T15:02:27Z</time>
      </trkpt>
      <trkpt lat="44.46026" lon="5.27734">
        <ele>992</ele>
        <time>2017-11-22T15:02:41Z</time>
      </trkpt>
      <trkpt lat="44.46022" lon="5.27714">
        <ele>992</ele>
        <time>2017-11-22T15:02:58Z</time>
      </trkpt>
      <trkpt lat="44.46017" lon="5.27686">
        <ele>988</ele>
        <time>2017-11-22T15:03:19Z</time>
      </trkpt>
      <trkpt lat="44.46011" lon="5.27671">
        <ele>983</ele>
        <time>2017-11-22T15:03:31Z</time>
      </trkpt>
      <trkpt lat="44.46009" lon="5.27649">
        <ele>984</ele>
        <time>2017-11-22T15:03:51Z</time>
      </trkpt>
      <trkpt lat="44.45999" lon="5.27565">
        <ele>963</ele>
        <time>2017-11-22T15:04:49Z</time>
      </trkpt>
      <trkpt lat="44.45987" lon="5.27509">
        <ele>964</ele>
        <time>2017-11-22T15:05:27Z</time>
      </trkpt>
      <trkpt lat="44.45983" lon="5.27468">
        <ele>957</ele>
        <time>2017-11-22T15:05:53Z</time>
      </trkpt>
      <trkpt lat="44.45984" lon="5.27465">
        <ele>957</ele>
        <time>2017-11-22T15:05:56Z</time>
      </trkpt>
      <trkpt lat="44.45982" lon="5.2744">
        <ele>956</ele>
        <time>2017-11-22T15:06:12Z</time>
      </trkpt>
      <trkpt lat="44.4598" lon="5.27423">
        <ele>956</ele>
        <time>2017-11-22T15:06:23Z</time>
      </trkpt>
      <trkpt lat="44.45977" lon="5.27409">
        <ele>950</ele>
        <time>2017-11-22T15:06:34Z</time>
      </trkpt>
      <trkpt lat="44.45975" lon="5.27394">
        <ele>947</ele>
        <time>2017-11-22T15:06:47Z</time>
      </trkpt>
      <trkpt lat="44.45974" lon="5.27359">
        <ele>944</ele>
        <time>2017-11-22T15:07:13Z</time>
      </trkpt>
      <trkpt lat="44.45974" lon="5.27316">
        <ele>934</ele>
        <time>2017-11-22T15:07:39Z</time>
      </trkpt>
      <trkpt lat="44.45976" lon="5.27277">
        <ele>931</ele>
        <time>2017-11-22T15:08:05Z</time>
      </trkpt>
      <trkpt lat="44.45981" lon="5.27255">
        <ele>932</ele>
        <time>2017-11-22T15:08:26Z</time>
      </trkpt>
      <trkpt lat="44.45982" lon="5.27226">
        <ele>925</ele>
        <time>2017-11-22T15:08:48Z</time>
      </trkpt>
      <trkpt lat="44.45965" lon="5.27199">
        <ele>920</ele>
        <time>2017-11-22T15:09:11Z</time>
      </trkpt>
      <trkpt lat="44.45948" lon="5.27182">
        <ele>915</ele>
        <time>2017-11-22T15:09:32Z</time>
      </trkpt>
      <trkpt lat="44.45941" lon="5.27167">
        <ele>912</ele>
        <time>2017-11-22T15:09:46Z</time>
      </trkpt>
      <trkpt lat="44.45928" lon="5.27135">
        <ele>912</ele>
        <time>2017-11-22T15:10:15Z</time>
      </trkpt>
      <trkpt lat="44.45917" lon="5.27124">
        <ele>912</ele>
        <time>2017-11-22T15:10:28Z</time>
      </trkpt>
      <trkpt lat="44.45903" lon="5.27099">
        <ele>891</ele>
        <time>2017-11-22T15:10:53Z</time>
      </trkpt>
      <trkpt lat="44.45887" lon="5.27062">
        <ele>892</ele>
        <time>2017-11-22T15:11:29Z</time>
      </trkpt>
      <trkpt lat="44.45851" lon="5.27022">
        <ele>887</ele>
        <time>2017-11-22T15:12:13Z</time>
      </trkpt>
      <trkpt lat="44.45815" lon="5.26959">
        <ele>874</ele>
        <time>2017-11-22T15:13:05Z</time>
      </trkpt>
      <trkpt lat="44.45789" lon="5.26926">
        <ele>872</ele>
        <time>2017-11-22T15:13:36Z</time>
      </trkpt>
      <trkpt lat="44.45745" lon="5.26856">
        <ele>860</ele>
        <time>2017-11-22T15:14:29Z</time>
      </trkpt>
      <trkpt lat="44.45732" lon="5.26844">
        <ele>860</ele>
        <time>2017-11-22T15:14:41Z</time>
      </trkpt>
      <trkpt lat="44.4572" lon="5.26832">
        <ele>861</ele>
        <time>2017-11-22T15:15:13Z</time>
      </trkpt>
      <trkpt lat="44.45693" lon="5.2679">
        <ele>857</ele>
        <time>2017-11-22T15:16:04Z</time>
      </trkpt>
      <trkpt lat="44.45683" lon="5.2677">
        <ele>855</ele>
        <time>2017-11-22T15:16:18Z</time>
      </trkpt>
      <trkpt lat="44.45672" lon="5.26757">
        <ele>851</ele>
        <time>2017-11-22T15:16:32Z</time>
      </trkpt>
      <trkpt lat="44.45637" lon="5.26723">
        <ele>837</ele>
        <time>2017-11-22T15:17:15Z</time>
      </trkpt>
      <trkpt lat="44.45636" lon="5.26721">
        <ele>837</ele>
        <time>2017-11-22T15:17:16Z</time>
      </trkpt>
      <trkpt lat="44.45625" lon="5.26698">
        <ele>836</ele>
        <time>2017-11-22T15:17:33Z</time>
      </trkpt>
      <trkpt lat="44.45611" lon="5.26684">
        <ele>833</ele>
        <time>2017-11-22T15:17:47Z</time>
      </trkpt>
      <trkpt lat="44.45596" lon="5.26664">
        <ele>829</ele>
        <time>2017-11-22T15:18:05Z</time>
      </trkpt>
      <trkpt lat="44.45585" lon="5.26648">
        <ele>829</ele>
        <time>2017-11-22T15:18:22Z</time>
      </trkpt>
      <trkpt lat="44.45582" lon="5.26644">
        <ele>811</ele>
        <time>2017-11-22T15:18:27Z</time>
      </trkpt>
      <trkpt lat="44.45584" lon="5.26595">
        <ele>822</ele>
        <time>2017-11-22T15:19:00Z</time>
      </trkpt>
      <trkpt lat="44.4559" lon="5.26566">
        <ele>820</ele>
        <time>2017-11-22T15:19:20Z</time>
      </trkpt>
      <trkpt lat="44.45593" lon="5.26548">
        <ele>821</ele>
        <time>2017-11-22T15:19:33Z</time>
      </trkpt>
      <trkpt lat="44.45609" lon="5.26525">
        <ele>821</ele>
        <time>2017-11-22T15:19:55Z</time>
      </trkpt>
      <trkpt lat="44.45604" lon="5.26463">
        <ele>811</ele>
        <time>2017-11-22T15:20:31Z</time>
      </trkpt>
      <trkpt lat="44.45601" lon="5.26422">
        <ele>804</ele>
        <time>2017-11-22T15:20:59Z</time>
      </trkpt>
      <trkpt lat="44.45594" lon="5.26395">
        <ele>800</ele>
        <time>2017-11-22T15:21:24Z</time>
      </trkpt>
      <trkpt lat="44.45584" lon="5.26375">
        <ele>800</ele>
        <time>2017-11-22T15:21:52Z</time>
      </trkpt>
      <trkpt lat="44.45575" lon="5.26372">
        <ele>778</ele>
        <time>2017-11-22T15:22:08Z</time>
      </trkpt>
      <trkpt lat="44.45562" lon="5.26364">
        <ele>776</ele>
        <time>2017-11-22T15:22:36Z</time>
      </trkpt>
      <trkpt lat="44.4555" lon="5.2636">
        <ele>774</ele>
        <time>2017-11-22T15:23:02Z</time>
      </trkpt>
      <trkpt lat="44.45542" lon="5.26361">
        <ele>772</ele>
        <time>2017-11-22T15:23:15Z</time>
      </trkpt>
      <trkpt lat="44.45534" lon="5.26372">
        <ele>771</ele>
        <time>2017-11-22T15:23:42Z</time>
      </trkpt>
      <trkpt lat="44.45529" lon="5.26351">
        <ele>768</ele>
        <time>2017-11-22T15:24:16Z</time>
      </trkpt>
    </trkseg>
  </trk>
</gpx>